KCCB

Cable Airport

Upland, California, USA
METAR KCCB 230955Z AUTO 31005KT 10SM BKN026 BKN032 BKN048 07/02 A3013 RMK AO2
Observed Flight Rules
Feb-23 @ 09:55 UTC (28 minutes ago) Marginal Visual Flight Rules
Wind Visibility Clouds
310° at 5 knots 10 miles
  • Broken at 2,600' AGL
  • Broken at 3,200' AGL
  • Broken at 4,800' AGL
Temperatures Readings
Current 7°C / 45°F
Dewpoint 2°C / 36°F
Humidity 71%
Altimeter 30.13" Hg
Pressure 1020 hPa
Elevation 440
METAR KCCB 230955Z AUTO 31005KT 10SM BKN026 BKN032 BKN048 07/02 A3013 RMK AO2
Observed Flight Rules
Feb-23 @ 09:55 UTC
(28 minutes ago)
MVFR
Wind Visibility
310° at 5 knots 10 miles
Clouds
  • Broken at 2,600' AGL
  • Broken at 3,200' AGL
  • Broken at 4,800' AGL
Temperature Dewpoint
7°C / 45°F 2°C / 36°F
Humidity Altimeter Pressure
71% 30.13" Hg 1020 hPa